Time;durP1;ratioP1;P1;durP2;ratioP2;P2;SDS_P1;SDS_P2;PMS_P1;PMS_P2;Temp;Humidity;BMP_temperature;BMP_pressure;BME280_temperature;BME280_humidity;BME280_pressure;Samples;Min_cycle;Max_cycle;Signal;HPM_P1;HPM_P2
2023/01/19 00:00:46;;;;;;;16.43;6.27;;;;;;;;;;5077515;28;20244;-74
2023/01/19 00:03:14;;;;;;;14.93;6.53;;;;;;;;;;5094275;28;20206;-73
2023/01/19 00:05:41;;;;;;;16.73;7.23;;;;;;;;;;5096479;28;20180;-74
2023/01/19 00:08:13;;;;;;;15.77;7.27;;;;;;;;;;5073164;28;20181;-73
2023/01/19 00:10:39;;;;;;;14.17;6.23;;;;;;;;;;5097218;28;20559;-73
2023/01/19 00:13:04;;;;;;;9.37;6.33;;;;;;;;;;5100443;28;20172;-73
2023/01/19 00:15:29;;;;;;;9.67;6.67;;;;;;;;;;5094743;28;20176;-73
2023/01/19 00:17:54;;;;;;;15.53;5.73;;;;;;;;;;5096329;28;20217;-73
2023/01/19 00:20:19;;;;;;;7.97;5.27;;;;;;;;;;5095314;28;20175;-73
2023/01/19 00:22:49;;;;;;;8.93;5.97;;;;;;;;;;5096714;28;20649;-73
2023/01/19 00:25:14;;;;;;;16.23;6.57;;;;;;;;;;5088786;28;20226;-73
2023/01/19 00:27:40;;;;;;;10.03;6.13;;;;;;;;;;5098127;28;20237;-74
2023/01/19 00:30:05;;;;;;;11.23;6.63;;;;;;;;;;5096212;28;20176;-73
2023/01/19 00:32:30;;;;;;;9.93;5.70;;;;;;;;;;5094959;28;20167;-74
2023/01/19 00:34:55;;;;;;;10.73;6.13;;;;;;;;;;5099051;28;20201;-74
2023/01/19 00:37:21;;;;;;;9.93;5.60;;;;;;;;;;5095459;28;20176;-74
2023/01/19 00:39:46;;;;;;;15.10;5.47;;;;;;;;;;5095712;28;20180;-74
2023/01/19 00:44:56;;;;;;;14.90;5.43;;;;;;;;;;5087098;28;20211;-74
2023/01/19 00:47:21;;;;;;;8.03;5.13;;;;;;;;;;5095470;28;20181;-73
2023/01/19 00:49:46;;;;;;;7.17;4.40;;;;;;;;;;5093212;28;20168;-74
2023/01/19 00:52:11;;;;;;;9.27;4.17;;;;;;;;;;5095648;28;20176;-74
2023/01/19 00:54:36;;;;;;;6.60;2.80;;;;;;;;;;5095848;28;21621;-74
2023/01/19 00:57:02;;;;;;;2.93;1.70;;;;;;;;;;5096184;28;20188;-74
2023/01/19 00:59:27;;;;;;;3.73;1.07;;;;;;;;;;5094885;28;20687;-73
2023/01/19 01:01:52;;;;;;;2.90;1.03;;;;;;;;;;5094078;28;20176;-73
2023/01/19 01:04:18;;;;;;;1.80;0.97;;;;;;;;;;5091282;28;22368;-74
2023/01/19 01:06:43;;;;;;;1.33;0.70;;;;;;;;;;5094677;28;20176;-74
2023/01/19 01:09:10;;;;;;;4.10;1.00;;;;;;;;;;5096706;28;20164;-73
2023/01/19 01:11:39;;;;;;;3.67;0.87;;;;;;;;;;5093038;28;20570;-73
2023/01/19 01:14:05;;;;;;;1.63;0.60;;;;;;;;;;5095691;28;20287;-74
2023/01/19 01:16:30;;;;;;;0.73;0.57;;;;;;;;;;5093059;28;20266;-73
2023/01/19 01:18:55;;;;;;;1.80;0.60;;;;;;;;;;5094981;28;20202;-75
2023/01/19 01:21:20;;;;;;;0.87;0.40;;;;;;;;;;5096129;28;20179;-74
2023/01/19 01:23:45;;;;;;;1.87;0.43;;;;;;;;;;5094316;28;20219;-74
2023/01/19 01:26:11;;;;;;;1.23;0.40;;;;;;;;;;5095934;28;20286;-74
2023/01/19 01:28:36;;;;;;;1.13;0.47;;;;;;;;;;5096778;28;20662;-74
2023/01/19 01:31:01;;;;;;;0.67;0.50;;;;;;;;;;5075377;28;20525;-74
2023/01/19 01:33:26;;;;;;;3.87;1.00;;;;;;;;;;5090386;28;20699;-74
2023/01/19 01:35:51;;;;;;;2.10;0.37;;;;;;;;;;5092948;28;20180;-74
2023/01/19 01:38:17;;;;;;;1.07;0.40;;;;;;;;;;5091600;28;20240;-75
2023/01/19 01:40:42;;;;;;;4.37;0.40;;;;;;;;;;5076663;28;20179;-75
2023/01/19 01:43:12;;;;;;;3.30;0.60;;;;;;;;;;5091029;28;20196;-74
2023/01/19 01:45:38;;;;;;;1.27;0.60;;;;;;;;;;5081235;28;20169;-74
2023/01/19 01:48:10;;;;;;;5.87;0.80;;;;;;;;;;5072866;28;20176;-75
2023/01/19 01:50:38;;;;;;;3.53;0.70;;;;;;;;;;5092652;28;20357;-75
2023/01/19 01:53:06;;;;;;;5.53;0.80;;;;;;;;;;5092728;28;20667;-74
2023/01/19 01:55:33;;;;;;;6.63;1.47;;;;;;;;;;5092495;28;20188;-74
2023/01/19 01:58:01;;;;;;;5.57;0.73;;;;;;;;;;5095673;28;20202;-75
2023/01/19 02:00:26;;;;;;;2.43;0.50;;;;;;;;;;5097970;28;20191;-75
2023/01/19 02:02:53;;;;;;;4.13;0.60;;;;;;;;;;5076772;28;20180;-75
2023/01/19 02:05:24;;;;;;;4.37;0.50;;;;;;;;;;5091518;28;20203;-75
2023/01/19 02:13:35;;;;;;;1.63;0.30;;;;;;;;;;5093520;28;20715;-74
2023/01/19 02:16:04;;;;;;;0.40;0.23;;;;;;;;;;5077457;28;20194;-74
2023/01/19 02:18:30;;;;;;;6.43;0.60;;;;;;;;;;5091920;28;20573;-75
2023/01/19 02:21:13;;;;;;;3.20;0.20;;;;;;;;;;5094252;28;20183;-74
2023/01/19 02:23:46;;;;;;;2.40;0.50;;;;;;;;;;5071721;28;20204;-74
2023/01/19 02:26:22;;;;;;;3.57;0.57;;;;;;;;;;5091480;28;20323;-76
2023/01/19 02:28:49;;;;;;;1.93;0.47;;;;;;;;;;5089859;28;20284;-74
2023/01/19 02:31:15;;;;;;;1.83;0.40;;;;;;;;;;5094316;28;20169;-73
2023/01/19 02:33:40;;;;;;;1.30;0.60;;;;;;;;;;5092651;28;20251;-73
2023/01/19 02:36:07;;;;;;;3.20;1.03;;;;;;;;;;5094095;28;20188;-73
2023/01/19 02:38:32;;;;;;;1.33;0.40;;;;;;;;;;5094425;28;20176;-74
2023/01/19 02:40:59;;;;;;;1.13;0.40;;;;;;;;;;5092328;28;20241;-74
2023/01/19 02:43:25;;;;;;;2.13;0.43;;;;;;;;;;5092766;28;20916;-74
2023/01/19 02:45:50;;;;;;;1.97;0.40;;;;;;;;;;5090449;28;20175;-73
2023/01/19 02:48:17;;;;;;;7.07;0.63;;;;;;;;;;5088574;28;20225;-74
2023/01/19 02:50:49;;;;;;;2.73;0.70;;;;;;;;;;5093440;28;20186;-74
2023/01/19 02:53:17;;;;;;;3.00;0.40;;;;;;;;;;5074781;28;20176;-74
2023/01/19 02:55:45;;;;;;;4.13;0.57;;;;;;;;;;5093049;28;20203;-75
2023/01/19 02:58:18;;;;;;;1.13;0.40;;;;;;;;;;5076543;28;20729;-74
2023/01/19 03:01:04;;;;;;;1.93;0.40;;;;;;;;;;5094126;28;20209;-74
2023/01/19 03:03:29;;;;;;;2.67;0.50;;;;;;;;;;5081685;28;20245;-74
2023/01/19 03:06:02;;;;;;;0.63;0.30;;;;;;;;;;5077683;28;20238;-74
2023/01/19 03:08:46;;;;;;;2.00;0.30;;;;;;;;;;5093057;28;20273;-74
2023/01/19 03:11:12;;;;;;;1.83;0.60;;;;;;;;;;5090990;28;20168;-74
2023/01/19 03:13:56;;;;;;;7.43;0.47;;;;;;;;;;5092871;28;20214;-75
2023/01/19 03:16:28;;;;;;;2.00;1.37;;;;;;;;;;5092882;28;20188;-74
2023/01/19 03:18:54;;;;;;;0.67;0.30;;;;;;;;;;5094783;28;20188;-74
2023/01/19 03:21:22;;;;;;;1.03;0.23;;;;;;;;;;5091991;28;20180;-74
2023/01/19 03:23:49;;;;;;;2.13;0.33;;;;;;;;;;5093034;28;20204;-75
2023/01/19 03:26:20;;;;;;;0.40;0.23;;;;;;;;;;5092351;28;20940;-74
2023/01/19 03:28:46;;;;;;;0.20;0.20;;;;;;;;;;5091599;28;20175;-74
2023/01/19 03:31:18;;;;;;;1.40;0.13;;;;;;;;;;5098417;28;20645;-74
2023/01/19 03:33:46;;;;;;;1.13;0.37;;;;;;;;;;5084009;28;20192;-74
2023/01/19 03:36:14;;;;;;;0.23;0.20;;;;;;;;;;5090079;28;20180;-74
2023/01/19 03:38:40;;;;;;;1.37;0.60;;;;;;;;;;5081763;28;20176;-74
2023/01/19 03:41:08;;;;;;;1.40;0.43;;;;;;;;;;5095455;28;20203;-74
2023/01/19 03:43:34;;;;;;;0.97;0.40;;;;;;;;;;5092534;28;20212;-74
2023/01/19 03:46:01;;;;;;;4.23;0.40;;;;;;;;;;5076907;28;20163;-74
2023/01/19 03:48:26;;;;;;;4.60;0.80;;;;;;;;;;5069272;28;20187;-74
2023/01/19 03:50:52;;;;;;;1.43;0.50;;;;;;;;;;5090902;28;20175;-74
2023/01/19 03:53:19;;;;;;;2.53;0.53;;;;;;;;;;5090307;28;20219;-73
2023/01/19 03:55:45;;;;;;;4.27;0.70;;;;;;;;;;5090323;28;20214;-74
2023/01/19 03:58:11;;;;;;;3.00;0.70;;;;;;;;;;5078925;28;20476;-74
2023/01/19 04:00:36;;;;;;;2.27;0.70;;;;;;;;;;5088947;28;20176;-74
2023/01/19 04:03:05;;;;;;;3.53;0.40;;;;;;;;;;5073274;28;20246;-74
2023/01/19 04:05:31;;;;;;;2.27;0.60;;;;;;;;;;5089423;28;20195;-74
2023/01/19 04:07:56;;;;;;;2.93;1.13;;;;;;;;;;5092734;28;20637;-74
2023/01/19 04:10:22;;;;;;;2.40;0.40;;;;;;;;;;5094093;28;20172;-73
2023/01/19 04:12:47;;;;;;;2.77;0.70;;;;;;;;;;5075215;28;20841;-73
2023/01/19 04:15:12;;;;;;;1.93;0.50;;;;;;;;;;5091066;28;20670;-73
2023/01/19 04:17:38;;;;;;;3.77;0.63;;;;;;;;;;5090215;28;20188;-73
2023/01/19 04:20:04;;;;;;;4.00;2.13;;;;;;;;;;5101271;28;20184;-74
2023/01/19 04:22:29;;;;;;;3.03;0.93;;;;;;;;;;5100328;28;20202;-73
2023/01/19 04:24:54;;;;;;;2.13;0.80;;;;;;;;;;5096960;28;20208;-74
2023/01/19 04:27:20;;;;;;;3.63;0.73;;;;;;;;;;5093687;28;20566;-73
2023/01/19 04:29:45;;;;;;;4.33;0.60;;;;;;;;;;5091888;28;20180;-73
2023/01/19 04:32:11;;;;;;;2.17;0.50;;;;;;;;;;5092740;28;20172;-74
2023/01/19 04:34:37;;;;;;;4.67;0.70;;;;;;;;;;5097725;28;20662;-74
2023/01/19 04:37:02;;;;;;;2.47;0.43;;;;;;;;;;5097073;28;20204;-73
2023/01/19 04:39:27;;;;;;;1.80;0.40;;;;;;;;;;5093630;28;20726;-74
2023/01/19 04:41:52;;;;;;;2.07;0.50;;;;;;;;;;5091465;28;20215;-73
2023/01/19 04:44:17;;;;;;;5.10;0.43;;;;;;;;;;5091037;28;20286;-73
2023/01/19 04:46:43;;;;;;;0.97;0.67;;;;;;;;;;5093477;28;20641;-74
2023/01/19 04:49:08;;;;;;;5.10;0.50;;;;;;;;;;5093852;28;20199;-74
2023/01/19 04:51:34;;;;;;;1.00;0.50;;;;;;;;;;5095358;28;20169;-74
2023/01/19 04:53:59;;;;;;;4.03;0.60;;;;;;;;;;5093489;28;20203;-73
2023/01/19 04:56:25;;;;;;;2.93;0.60;;;;;;;;;;5074374;28;20176;-74
2023/01/19 04:58:50;;;;;;;5.50;0.67;;;;;;;;;;5093858;28;20263;-73
2023/01/19 05:01:15;;;;;;;3.90;0.77;;;;;;;;;;5100332;28;20190;-73
2023/01/19 05:03:40;;;;;;;4.17;0.90;;;;;;;;;;5077134;28;20204;-72
2023/01/19 05:06:06;;;;;;;5.70;1.13;;;;;;;;;;5096612;28;20629;-73
2023/01/19 05:08:31;;;;;;;4.20;1.07;;;;;;;;;;5075077;28;20180;-73
2023/01/19 05:10:56;;;;;;;2.23;1.30;;;;;;;;;;5091691;28;20187;-73
2023/01/19 05:13:21;;;;;;;2.90;0.70;;;;;;;;;;5074924;28;20222;-73
2023/01/19 05:15:47;;;;;;;3.13;0.97;;;;;;;;;;5092472;28;20176;-73
2023/01/19 05:18:12;;;;;;;2.27;1.07;;;;;;;;;;5084169;28;20713;-73
2023/01/19 05:20:38;;;;;;;4.60;1.37;;;;;;;;;;5094739;28;20188;-73
2023/01/19 05:23:03;;;;;;;4.63;1.70;;;;;;;;;;5094694;28;20270;-73
2023/01/19 05:25:28;;;;;;;4.53;1.43;;;;;;;;;;5092661;28;20259;-73
2023/01/19 05:27:54;;;;;;;2.50;1.30;;;;;;;;;;5093161;28;20187;-73
2023/01/19 05:30:19;;;;;;;2.60;1.63;;;;;;;;;;5092852;28;20567;-73
2023/01/19 05:32:44;;;;;;;3.90;1.20;;;;;;;;;;5091124;28;20191;-73
2023/01/19 05:35:09;;;;;;;8.57;1.23;;;;;;;;;;5092574;28;20202;-74
2023/01/19 05:37:34;;;;;;;5.63;1.73;;;;;;;;;;5090303;28;20176;-73
2023/01/19 05:40:00;;;;;;;4.10;1.43;;;;;;;;;;5092757;28;20172;-73
2023/01/19 05:42:25;;;;;;;5.40;1.57;;;;;;;;;;5093416;28;20636;-74
2023/01/19 05:44:50;;;;;;;5.87;1.63;;;;;;;;;;5090930;28;20212;-73
2023/01/19 05:47:15;;;;;;;7.73;2.03;;;;;;;;;;5089670;28;20239;-73
2023/01/19 05:49:40;;;;;;;9.40;1.70;;;;;;;;;;5093535;28;20184;-74
2023/01/19 05:52:06;;;;;;;4.93;1.47;;;;;;;;;;5090447;28;20623;-74
2023/01/19 05:54:31;;;;;;;7.87;1.63;;;;;;;;;;5096228;28;20435;-73
2023/01/19 05:56:57;;;;;;;10.83;1.70;;;;;;;;;;5085875;28;20190;-73
2023/01/19 05:59:23;;;;;;;7.47;2.03;;;;;;;;;;5095355;28;20256;-72
2023/01/19 06:01:51;;;;;;;8.70;2.03;;;;;;;;;;5093811;28;20184;-73
2023/01/19 06:04:16;;;;;;;5.50;1.80;;;;;;;;;;5094371;28;22035;-73
2023/01/19 06:06:41;;;;;;;5.93;1.97;;;;;;;;;;5093392;28;20692;-73
2023/01/19 06:09:06;;;;;;;8.50;2.00;;;;;;;;;;5092733;28;20592;-73
2023/01/19 06:11:32;;;;;;;11.60;1.73;;;;;;;;;;5093446;28;20192;-74
2023/01/19 06:13:57;;;;;;;12.07;1.80;;;;;;;;;;5096064;28;20477;-74
2023/01/19 06:16:22;;;;;;;7.83;1.90;;;;;;;;;;5091146;28;20203;-73
2023/01/19 06:18:47;;;;;;;11.43;1.77;;;;;;;;;;5093728;28;20270;-73
2023/01/19 06:21:13;;;;;;;11.73;2.73;;;;;;;;;;5093455;28;20179;-73
2023/01/19 06:23:38;;;;;;;13.57;1.97;;;;;;;;;;5093362;28;20208;-74
2023/01/19 06:26:03;;;;;;;11.43;3.20;;;;;;;;;;5092754;28;20187;-73
2023/01/19 06:28:28;;;;;;;15.87;2.03;;;;;;;;;;5092967;28;20692;-73
2023/01/19 06:30:54;;;;;;;10.47;1.90;;;;;;;;;;5088431;28;20167;-73
2023/01/19 06:33:19;;;;;;;8.03;1.70;;;;;;;;;;5091670;28;20203;-73
2023/01/19 06:35:45;;;;;;;11.47;2.00;;;;;;;;;;5093268;28;20183;-74
2023/01/19 06:38:12;;;;;;;9.47;2.00;;;;;;;;;;5093308;28;20180;-73
2023/01/19 06:40:37;;;;;;;15.27;2.10;;;;;;;;;;5092470;28;20373;-73
2023/01/19 06:43:02;;;;;;;13.93;3.40;;;;;;;;;;5090370;28;20593;-73
2023/01/19 06:45:28;;;;;;;8.93;1.53;;;;;;;;;;5094531;28;20179;-73
2023/01/19 06:47:53;;;;;;;9.07;1.90;;;;;;;;;;5090624;28;20195;-73
2023/01/19 06:50:18;;;;;;;10.63;2.10;;;;;;;;;;5089919;28;20224;-73
2023/01/19 06:52:43;;;;;;;11.37;2.10;;;;;;;;;;5092887;28;20199;-73
2023/01/19 06:55:09;;;;;;;6.43;1.97;;;;;;;;;;5092352;28;20201;-74
2023/01/19 06:57:36;;;;;;;10.23;1.93;;;;;;;;;;5088368;28;20203;-73
2023/01/19 07:00:04;;;;;;;7.13;1.87;;;;;;;;;;5091571;28;20171;-73
2023/01/19 07:02:30;;;;;;;9.17;1.83;;;;;;;;;;5086353;28;20846;-74
2023/01/19 07:04:55;;;;;;;14.37;2.40;;;;;;;;;;5093564;28;20205;-73
2023/01/19 07:07:20;;;;;;;6.53;1.97;;;;;;;;;;5090155;28;20163;-73
2023/01/19 07:09:45;;;;;;;16.07;2.50;;;;;;;;;;5093282;28;20256;-74
2023/01/19 07:12:11;;;;;;;8.70;1.70;;;;;;;;;;5092285;28;20186;-73
2023/01/19 07:14:36;;;;;;;6.20;2.03;;;;;;;;;;5092982;28;20210;-73
2023/01/19 07:17:01;;;;;;;8.97;2.23;;;;;;;;;;5091521;28;20184;-73
2023/01/19 07:19:27;;;;;;;10.63;2.23;;;;;;;;;;5092355;28;20729;-73
2023/01/19 07:21:52;;;;;;;9.73;2.63;;;;;;;;;;5091996;28;20206;-73
2023/01/19 07:24:17;;;;;;;14.30;2.57;;;;;;;;;;5092708;28;20203;-73
2023/01/19 07:26:42;;;;;;;6.70;1.63;;;;;;;;;;5092068;28;20250;-73
2023/01/19 07:29:07;;;;;;;18.90;3.50;;;;;;;;;;5094401;28;20209;-73
2023/01/19 07:31:33;;;;;;;10.00;2.27;;;;;;;;;;5090566;28;20233;-73
2023/01/19 07:33:59;;;;;;;14.47;1.90;;;;;;;;;;5092937;28;20605;-73
2023/01/19 07:36:24;;;;;;;16.87;2.40;;;;;;;;;;5072891;28;20260;-73
2023/01/19 07:38:49;;;;;;;10.47;1.87;;;;;;;;;;5091911;28;20300;-73
2023/01/19 07:41:14;;;;;;;15.73;2.03;;;;;;;;;;5093948;28;20824;-73
2023/01/19 07:43:41;;;;;;;14.50;2.30;;;;;;;;;;5100049;28;20204;-73
2023/01/19 07:46:07;;;;;;;9.10;2.90;;;;;;;;;;5092267;28;20263;-73
2023/01/19 07:48:32;;;;;;;8.50;2.00;;;;;;;;;;5094601;28;20181;-74
2023/01/19 07:50:58;;;;;;;6.03;1.87;;;;;;;;;;5093746;28;20413;-73
2023/01/19 07:53:23;;;;;;;11.97;1.80;;;;;;;;;;5094592;28;20235;-73
2023/01/19 07:55:52;;;;;;;8.50;1.43;;;;;;;;;;5074140;28;20211;-73
2023/01/19 07:58:17;;;;;;;13.83;2.20;;;;;;;;;;5094989;28;20180;-73
2023/01/19 08:00:43;;;;;;;10.33;1.50;;;;;;;;;;5074740;28;20225;-73
2023/01/19 08:03:08;;;;;;;5.07;2.53;;;;;;;;;;5084219;28;20180;-73
2023/01/19 08:05:35;;;;;;;6.10;1.37;;;;;;;;;;5087157;28;20232;-73
2023/01/19 08:08:00;;;;;;;11.80;1.93;;;;;;;;;;5089720;28;20259;-74
2023/01/19 08:10:26;;;;;;;5.33;1.10;;;;;;;;;;5090799;28;20255;-73
2023/01/19 08:12:55;;;;;;;9.00;1.50;;;;;;;;;;5094293;28;20668;-73
2023/01/19 08:15:22;;;;;;;7.77;1.53;;;;;;;;;;5087754;28;20664;-72
2023/01/19 08:17:58;;;;;;;7.43;1.43;;;;;;;;;;5084053;28;20191;-73
2023/01/19 08:20:24;;;;;;;10.23;4.10;;;;;;;;;;5068481;28;20175;-73
2023/01/19 08:22:49;;;;;;;6.17;1.70;;;;;;;;;;5073397;28;20183;-73
2023/01/19 08:25:14;;;;;;;8.20;1.53;;;;;;;;;;5095443;28;20874;-73
2023/01/19 08:27:39;;;;;;;5.70;1.70;;;;;;;;;;5092476;28;20184;-73
2023/01/19 08:30:05;;;;;;;10.23;1.40;;;;;;;;;;5090190;28;20176;-73
2023/01/19 08:32:31;;;;;;;4.07;2.03;;;;;;;;;;5088366;28;20183;-72
2023/01/19 08:34:56;;;;;;;8.13;1.73;;;;;;;;;;5072155;28;20208;-73
2023/01/19 08:37:21;;;;;;;6.93;1.60;;;;;;;;;;5089466;28;20192;-73
2023/01/19 08:39:47;;;;;;;7.13;1.20;;;;;;;;;;5088209;28;20275;-73
2023/01/19 08:42:12;;;;;;;7.77;1.30;;;;;;;;;;5092677;28;20208;-73
2023/01/19 08:44:37;;;;;;;6.20;1.50;;;;;;;;;;5087862;28;20212;-73
2023/01/19 08:47:02;;;;;;;5.50;1.20;;;;;;;;;;5093302;28;20180;-73
2023/01/19 08:49:28;;;;;;;7.30;1.47;;;;;;;;;;5090265;28;20190;-73
2023/01/19 08:51:53;;;;;;;3.93;1.30;;;;;;;;;;5092436;28;20172;-73
2023/01/19 08:54:20;;;;;;;3.27;1.17;;;;;;;;;;5092613;28;20661;-73
2023/01/19 08:56:45;;;;;;;6.50;1.20;;;;;;;;;;5092629;28;20183;-73
2023/01/19 08:59:10;;;;;;;7.80;1.47;;;;;;;;;;5086719;28;20183;-73
2023/01/19 09:01:36;;;;;;;4.50;1.37;;;;;;;;;;5090560;28;20199;-73
2023/01/19 09:04:01;;;;;;;7.50;1.13;;;;;;;;;;5089803;28;20272;-72
2023/01/19 09:06:27;;;;;;;8.40;1.70;;;;;;;;;;5074828;28;20188;-73
2023/01/19 09:08:52;;;;;;;8.40;1.83;;;;;;;;;;5092892;28;20209;-73
2023/01/19 09:11:18;;;;;;;8.87;1.43;;;;;;;;;;5093300;28;20237;-73
2023/01/19 09:13:43;;;;;;;5.00;2.13;;;;;;;;;;5091040;28;20248;-73
2023/01/19 09:16:11;;;;;;;8.00;1.97;;;;;;;;;;5093105;28;20180;-74
2023/01/19 09:18:36;;;;;;;8.53;1.60;;;;;;;;;;5074404;28;20186;-74
2023/01/19 09:21:02;;;;;;;8.93;2.73;;;;;;;;;;5091530;28;20560;-73
2023/01/19 09:23:28;;;;;;;6.97;1.40;;;;;;;;;;5093356;28;20567;-74
2023/01/19 09:25:57;;;;;;;7.73;1.80;;;;;;;;;;5094271;28;20253;-74
2023/01/19 09:28:22;;;;;;;9.60;1.47;;;;;;;;;;5092110;28;20688;-73
2023/01/19 09:30:47;;;;;;;9.77;1.50;;;;;;;;;;5077101;28;20475;-73
2023/01/19 09:33:14;;;;;;;10.37;2.33;;;;;;;;;;5091351;28;20183;-73
2023/01/19 09:35:40;;;;;;;5.07;1.90;;;;;;;;;;5074910;28;20172;-73
2023/01/19 09:38:07;;;;;;;7.27;1.63;;;;;;;;;;5092041;28;20177;-73
2023/01/19 09:40:34;;;;;;;6.80;1.83;;;;;;;;;;5089726;28;20180;-73
2023/01/19 09:43:09;;;;;;;6.63;1.20;;;;;;;;;;5067442;28;20218;-74
2023/01/19 09:45:47;;;;;;;3.67;1.53;;;;;;;;;;5090708;28;20180;-73
2023/01/19 09:48:23;;;;;;;5.83;1.63;;;;;;;;;;5091601;28;20650;-73
2023/01/19 09:50:48;;;;;;;7.20;2.10;;;;;;;;;;5090015;28;20175;-73
2023/01/19 09:53:23;;;;;;;7.77;2.67;;;;;;;;;;5091067;28;20732;-73
2023/01/19 09:55:50;;;;;;;15.27;3.30;;;;;;;;;;5087006;28;20184;-73
2023/01/19 09:58:17;;;;;;;8.57;2.37;;;;;;;;;;5093039;28;20344;-73
2023/01/19 10:00:46;;;;;;;4.00;1.77;;;;;;;;;;5089753;28;20180;-73
2023/01/19 10:03:14;;;;;;;6.27;2.07;;;;;;;;;;5087638;28;20263;-73
2023/01/19 10:05:47;;;;;;;8.30;1.70;;;;;;;;;;5100632;22;20219;-78
2023/01/19 10:08:29;;;;;;;4.87;1.70;;;;;;;;;;5091962;28;21924;-76
2023/01/19 10:10:56;;;;;;;8.17;2.10;;;;;;;;;;5092013;28;21557;-76
2023/01/19 10:13:27;;;;;;;5.17;1.67;;;;;;;;;;5095339;28;20199;-76
2023/01/19 10:16:08;;;;;;;3.20;1.30;;;;;;;;;;5077746;28;20199;-78
2023/01/19 10:18:45;;;;;;;5.97;1.13;;;;;;;;;;5076961;28;20716;-77
2023/01/19 10:21:13;;;;;;;7.37;1.67;;;;;;;;;;5075067;28;20584;-77
2023/01/19 10:23:41;;;;;;;6.50;2.30;;;;;;;;;;5074959;28;20223;-77
2023/01/19 10:26:12;;;;;;;8.07;2.03;;;;;;;;;;5080701;28;20176;-77
2023/01/19 10:28:38;;;;;;;4.83;2.07;;;;;;;;;;5077774;28;20185;-78
2023/01/19 10:31:05;;;;;;;6.67;1.13;;;;;;;;;;5077453;28;20180;-77
2023/01/19 10:33:31;;;;;;;6.13;1.67;;;;;;;;;;5083824;28;20185;-76
2023/01/19 10:35:56;;;;;;;7.13;2.70;;;;;;;;;;5080855;28;20211;-76
2023/01/19 10:38:21;;;;;;;5.40;1.67;;;;;;;;;;5080753;28;20185;-77
2023/01/19 10:40:53;;;;;;;7.37;1.97;;;;;;;;;;5095978;28;20191;-77
2023/01/19 10:43:33;;;;;;;7.70;1.77;;;;;;;;;;5075606;28;20189;-77
2023/01/19 10:45:59;;;;;;;7.03;1.40;;;;;;;;;;5073585;28;20181;-79
2023/01/19 10:48:24;;;;;;;5.13;2.10;;;;;;;;;;5072540;28;20753;-78
2023/01/19 10:51:00;;;;;;;8.57;1.40;;;;;;;;;;5082348;28;20264;-77
2023/01/19 10:53:25;;;;;;;5.83;1.30;;;;;;;;;;5080085;28;20180;-78
2023/01/19 10:56:09;;;;;;;5.03;1.43;;;;;;;;;;5080278;28;20322;-77
2023/01/19 10:58:35;;;;;;;3.87;1.23;;;;;;;;;;5087660;28;20188;-77
2023/01/19 11:01:20;;;;;;;5.73;1.73;;;;;;;;;;5082829;28;20180;-77
2023/01/19 11:03:45;;;;;;;3.97;1.10;;;;;;;;;;5077841;28;20196;-78
2023/01/19 11:06:20;;;;;;;4.20;1.00;;;;;;;;;;5081427;28;20188;-78
2023/01/19 11:08:46;;;;;;;1.97;0.80;;;;;;;;;;5079838;28;20184;-79
2023/01/19 11:11:11;;;;;;;2.43;0.70;;;;;;;;;;5081121;28;20217;-77
2023/01/19 11:13:38;;;;;;;2.27;0.80;;;;;;;;;;5082408;28;20176;-78
2023/01/19 11:16:06;;;;;;;4.13;0.80;;;;;;;;;;5078402;28;20188;-78
2023/01/19 11:18:31;;;;;;;4.57;1.07;;;;;;;;;;5078505;28;20567;-78
2023/01/19 11:21:00;;;;;;;1.70;0.80;;;;;;;;;;5092786;27;20188;-79
2023/01/19 11:23:46;;;;;;;8.73;0.90;;;;;;;;;;5082661;28;22109;-79
2023/01/19 11:26:23;;;;;;;2.53;0.47;;;;;;;;;;5076610;28;20220;-76
2023/01/19 11:28:50;;;;;;;4.03;0.60;;;;;;;;;;5075689;28;20203;-76
2023/01/19 11:31:15;;;;;;;1.80;0.80;;;;;;;;;;5070891;28;20180;-76
2023/01/19 11:33:41;;;;;;;6.20;0.97;;;;;;;;;;5077192;28;20177;-75
2023/01/19 11:36:20;;;;;;;3.00;0.90;;;;;;;;;;5074404;28;20271;-78
2023/01/19 11:38:49;;;;;;;4.23;0.90;;;;;;;;;;5076824;28;20189;-78
2023/01/19 11:41:21;;;;;;;4.20;0.90;;;;;;;;;;5074711;28;20900;-79
2023/01/19 11:43:54;;;;;;;2.77;0.63;;;;;;;;;;5074788;28;20204;-78
2023/01/19 11:46:19;;;;;;;4.57;0.80;;;;;;;;;;5074606;28;20173;-78
2023/01/19 11:48:47;;;;;;;1.87;0.70;;;;;;;;;;5077422;28;20293;-79
2023/01/19 11:51:14;;;;;;;6.20;1.20;;;;;;;;;;5097496;28;20288;-77
2023/01/19 11:53:42;;;;;;;1.43;0.73;;;;;;;;;;5078377;28;20223;-78
2023/01/19 11:56:09;;;;;;;3.43;0.70;;;;;;;;;;5076441;28;20396;-78
2023/01/19 11:58:43;;;;;;;3.03;0.67;;;;;;;;;;5077488;28;20180;-77
2023/01/19 12:01:11;;;;;;;3.37;0.90;;;;;;;;;;5078858;28;20182;-78
2023/01/19 12:03:39;;;;;;;3.93;0.70;;;;;;;;;;5095219;28;20249;-77
2023/01/19 12:06:08;;;;;;;4.43;0.80;;;;;;;;;;5076305;28;20669;-78
2023/01/19 12:08:35;;;;;;;2.30;0.80;;;;;;;;;;5080070;28;20176;-78
2023/01/19 12:11:01;;;;;;;4.77;0.90;;;;;;;;;;5078760;28;20271;-77
2023/01/19 12:13:27;;;;;;;2.33;0.90;;;;;;;;;;5079665;28;20252;-78
2023/01/19 12:16:19;;;;;;;3.40;1.07;;;;;;;;;;5078097;28;20196;-78
2023/01/19 12:18:47;;;;;;;2.90;0.83;;;;;;;;;;5074695;28;20181;-77
2023/01/19 12:21:12;;;;;;;3.37;0.80;;;;;;;;;;5074790;28;20173;-77
2023/01/19 12:23:57;;;;;;;4.50;1.40;;;;;;;;;;5080936;28;20204;-77
2023/01/19 12:26:41;;;;;;;3.77;1.23;;;;;;;;;;5080451;28;20211;-77
2023/01/19 12:29:14;;;;;;;4.87;1.40;;;;;;;;;;5077159;28;20168;-77
2023/01/19 12:31:41;;;;;;;4.30;2.07;;;;;;;;;;5074694;28;20176;-77
2023/01/19 12:34:26;;;;;;;3.37;0.90;;;;;;;;;;5078191;28;20261;-77
2023/01/19 12:36:54;;;;;;;5.80;1.00;;;;;;;;;;5077709;28;20709;-77
2023/01/19 12:39:20;;;;;;;4.33;1.00;;;;;;;;;;5076404;28;20262;-77
2023/01/19 12:41:46;;;;;;;3.67;0.70;;;;;;;;;;5076815;28;20184;-77
2023/01/19 12:44:11;;;;;;;3.20;0.80;;;;;;;;;;5077857;28;20315;-77
2023/01/19 12:46:36;;;;;;;3.23;1.00;;;;;;;;;;5078035;28;20642;-77
2023/01/19 12:49:20;;;;;;;3.27;0.77;;;;;;;;;;5094373;28;20177;-77
2023/01/19 12:51:46;;;;;;;3.77;0.50;;;;;;;;;;5073089;28;20208;-77
2023/01/19 12:54:29;;;;;;;4.70;0.73;;;;;;;;;;5077767;28;20778;-77
2023/01/19 12:56:59;;;;;;;3.33;0.73;;;;;;;;;;5075518;28;20527;-77
2023/01/19 12:59:25;;;;;;;1.17;0.67;;;;;;;;;;5074636;28;20267;-77
2023/01/19 13:02:09;;;;;;;3.97;1.30;;;;;;;;;;5079355;28;20184;-77
2023/01/19 13:04:34;;;;;;;3.17;0.80;;;;;;;;;;5077920;28;20215;-77
2023/01/19 13:07:03;;;;;;;4.03;0.87;;;;;;;;;;5074985;28;20245;-78
2023/01/19 13:09:30;;;;;;;1.43;0.67;;;;;;;;;;5073287;28;20227;-78
2023/01/19 13:12:28;;;;;;;1.20;0.80;;;;;;;;;;5091330;28;20180;-77
2023/01/19 13:15:13;;;;;;;7.00;0.87;;;;;;;;;;5053878;28;20672;-79
2023/01/19 13:17:49;;;;;;;1.83;0.60;;;;;;;;;;5074901;28;20173;-78
2023/01/19 13:20:33;;;;;;;4.43;0.73;;;;;;;;;;5075061;28;20177;-79
2023/01/19 13:23:14;;;;;;;4.67;1.03;;;;;;;;;;5075054;28;21775;-78
2023/01/19 13:25:46;;;;;;;3.83;1.00;;;;;;;;;;5074631;28;20240;-78
2023/01/19 13:28:13;;;;;;;2.30;0.70;;;;;;;;;;5076275;28;20216;-78
2023/01/19 13:30:44;;;;;;;2.80;0.80;;;;;;;;;;5071305;28;21165;-77
2023/01/19 13:33:14;;;;;;;1.67;0.60;;;;;;;;;;5075361;28;20201;-77
2023/01/19 13:35:46;;;;;;;1.70;0.80;;;;;;;;;;5080277;28;20208;-77
2023/01/19 13:38:13;;;;;;;5.33;0.80;;;;;;;;;;5073254;28;20202;-77
2023/01/19 13:40:38;;;;;;;4.07;1.07;;;;;;;;;;5089254;28;20181;-77
2023/01/19 13:43:06;;;;;;;2.57;1.17;;;;;;;;;;5074161;28;20727;-77
2023/01/19 13:45:33;;;;;;;2.77;0.70;;;;;;;;;;5079042;28;20580;-77
2023/01/19 13:48:05;;;;;;;2.03;0.60;;;;;;;;;;5076858;28;20428;-77
2023/01/19 13:50:32;;;;;;;3.40;0.90;;;;;;;;;;5076676;28;20179;-77
2023/01/19 13:52:58;;;;;;;3.47;1.30;;;;;;;;;;5073975;28;20197;-78
2023/01/19 13:55:24;;;;;;;5.00;1.57;;;;;;;;;;5072768;28;20637;-78
2023/01/19 13:57:52;;;;;;;4.53;0.80;;;;;;;;;;5091517;28;20180;-78
2023/01/19 14:00:19;;;;;;;4.13;1.73;;;;;;;;;;5072605;28;20172;-78
2023/01/19 14:02:44;;;;;;;5.67;1.20;;;;;;;;;;5076349;28;20272;-79
2023/01/19 14:05:24;;;;;;;3.53;0.97;;;;;;;;;;5075191;28;20294;-77
2023/01/19 14:08:05;;;;;;;2.37;0.60;;;;;;;;;;5089656;28;20310;-78
2023/01/19 14:10:31;;;;;;;0.80;0.50;;;;;;;;;;5074047;28;20187;-75
2023/01/19 14:12:57;;;;;;;1.73;0.93;;;;;;;;;;5073472;28;20196;-79
2023/01/19 14:15:23;;;;;;;1.83;1.03;;;;;;;;;;5073404;28;20244;-78
2023/01/19 14:18:06;;;;;;;1.37;0.87;;;;;;;;;;5074305;28;20184;-78
2023/01/19 14:20:35;;;;;;;3.87;1.00;;;;;;;;;;5073541;28;20176;-76
2023/01/19 14:23:00;;;;;;;6.87;1.67;;;;;;;;;;5075528;28;20187;-77
2023/01/19 14:25:26;;;;;;;3.30;0.87;;;;;;;;;;5073572;28;20204;-76
2023/01/19 14:28:11;;;;;;;3.23;1.00;;;;;;;;;;5088070;28;20177;-76
2023/01/19 14:30:36;;;;;;;2.83;0.73;;;;;;;;;;5075708;28;20643;-80
2023/01/19 14:33:01;;;;;;;4.17;1.03;;;;;;;;;;5077761;28;20184;-76
2023/01/19 14:35:28;;;;;;;3.03;0.90;;;;;;;;;;5077409;28;20202;-76
2023/01/19 14:37:54;;;;;;;2.60;1.30;;;;;;;;;;5071665;28;20193;-77
2023/01/19 14:40:20;;;;;;;5.43;1.00;;;;;;;;;;5076295;28;21231;-76
2023/01/19 14:42:46;;;;;;;2.53;0.57;;;;;;;;;;5074740;28;20692;-77
2023/01/19 14:45:20;;;;;;;3.00;0.53;;;;;;;;;;5073964;28;20212;-77
2023/01/19 14:47:51;;;;;;;4.03;0.83;;;;;;;;;;5077163;28;20177;-77
2023/01/19 14:50:22;;;;;;;4.07;0.73;;;;;;;;;;5072902;28;20240;-77
2023/01/19 14:52:55;;;;;;;0.83;0.57;;;;;;;;;;5073837;28;20180;-77